Time;durP1;ratioP1;P1;durP2;ratioP2;P2;SDS_P1;SDS_P2;PMS_P1;PMS_P2;Temp;Humidity;BMP_temperature;BMP_pressure;BME280_temperature;BME280_humidity;BME280_pressure;Samples;Min_cycle;Max_cycle;Signal;HPM_P1;HPM_P2
2022/08/20 00:00:21;;;;;;;;;;;18.10;99.90;;;;;;5067389;28;19917;-76
2022/08/20 00:02:49;;;;;;;;;;;18.20;99.90;;;;;;5055108;28;19921;-76
2022/08/20 00:05:18;;;;;;;;;;;18.20;99.90;;;;;;5041407;28;19927;-75
2022/08/20 00:07:44;;;;;;;;;;;18.20;99.90;;;;;;5052350;28;19916;-75
2022/08/20 00:10:09;;;;;;;;;;;18.20;99.90;;;;;;5053280;28;19943;-76
2022/08/20 00:12:36;;;;;;;;;;;18.20;99.90;;;;;;5042495;28;19921;-76
2022/08/20 00:15:03;;;;;;;;;;;18.20;99.90;;;;;;5070161;28;19920;-76
2022/08/20 00:17:35;;;;;;;;;;;18.30;99.90;;;;;;5069203;28;20266;-76
2022/08/20 00:20:02;;;;;;;;;;;18.30;99.90;;;;;;5053752;28;20296;-76
2022/08/20 00:22:27;;;;;;;;;;;18.20;99.90;;;;;;5048940;28;19960;-76
2022/08/20 00:24:53;;;;;;;;;;;18.20;99.90;;;;;;5065715;28;19959;-76
2022/08/20 00:27:18;;;;;;;;;;;18.30;99.90;;;;;;5070370;28;20351;-76
2022/08/20 00:29:44;;;;;;;;;;;18.30;99.90;;;;;;5048960;28;19920;-76
2022/08/20 00:32:10;;;;;;;;;;;18.30;99.90;;;;;;5086844;28;19920;-76
2022/08/20 00:34:35;;;;;;;;;;;18.20;99.90;;;;;;5069889;28;20289;-76
2022/08/20 00:37:01;;;;;;;;;;;18.30;99.90;;;;;;5069248;28;19974;-76
2022/08/20 00:39:26;;;;;;;;;;;18.20;99.90;;;;;;5066702;28;19932;-76
2022/08/20 00:41:52;;;;;;;;;;;18.30;99.90;;;;;;5069920;28;20432;-76
2022/08/20 00:44:20;;;;;;;;;;;18.20;99.90;;;;;;5069430;28;20388;-77
2022/08/20 00:46:46;;;;;;;;;;;18.20;99.90;;;;;;5062137;28;19924;-76
2022/08/20 00:49:17;;;;;;;;;;;18.20;99.90;;;;;;5040097;28;20391;-76
2022/08/20 00:51:45;;;;;;;;;;;18.20;99.90;;;;;;5058494;28;19959;-76
2022/08/20 00:54:14;;;;;;;;;;;18.30;99.90;;;;;;5048933;28;20011;-76
2022/08/20 00:56:42;;;;;;;;;;;18.20;99.90;;;;;;5050388;28;19920;-76
2022/08/20 00:59:10;;;;;;;;;;;18.20;99.90;;;;;;5061148;28;19920;-76
2022/08/20 01:01:37;;;;;;;;;;;18.20;99.90;;;;;;5074189;28;20015;-76
2022/08/20 01:04:02;;;;;;;;;;;18.20;99.90;;;;;;5054750;28;19927;-76
2022/08/20 01:06:28;;;;;;;;;;;18.20;99.90;;;;;;5077341;28;19928;-76
2022/08/20 01:08:53;;;;;;;;;;;18.10;99.90;;;;;;5038964;28;19924;-76
2022/08/20 01:11:22;;;;;;;;;;;18.10;99.90;;;;;;5061050;28;19923;-76
2022/08/20 01:13:48;;;;;;;;;;;18.10;99.90;;;;;;5074304;28;20206;-76
2022/08/20 01:16:18;;;;;;;;;;;18.00;99.90;;;;;;5046535;28;19916;-76
2022/08/20 01:18:47;;;;;;;;;;;18.00;99.90;;;;;;5068134;28;19916;-77
2022/08/20 01:21:12;;;;;;;;;;;18.00;99.90;;;;;;5062896;28;19920;-76
2022/08/20 01:23:44;;;;;;;;;;;17.90;99.90;;;;;;5068620;28;19943;-77
2022/08/20 01:26:11;;;;;;;;;;;17.90;99.90;;;;;;5044455;28;19971;-76
2022/08/20 01:28:37;;;;;;;;;;;17.90;99.90;;;;;;5048649;28;20272;-76
2022/08/20 01:31:04;;;;;;;;;;;17.80;99.90;;;;;;5040707;28;19927;-76
2022/08/20 01:33:30;;;;;;;;;;;17.80;99.90;;;;;;5058728;28;19925;-76
2022/08/20 01:35:56;;;;;;;;;;;17.70;99.90;;;;;;5039181;28;20046;-76
2022/08/20 01:38:22;;;;;;;;;;;17.70;99.90;;;;;;5058072;28;20007;-76
2022/08/20 01:40:47;;;;;;;;;;;17.70;99.90;;;;;;5054053;28;19924;-76
2022/08/20 01:43:13;;;;;;;;;;;17.60;99.90;;;;;;5052995;28;19920;-76
2022/08/20 01:45:38;;;;;;;;;;;17.60;99.90;;;;;;5093445;28;19925;-76
2022/08/20 01:48:04;;;;;;;;;;;17.50;99.90;;;;;;5038523;28;19917;-76
2022/08/20 01:50:31;;;;;;;;;;;17.50;99.90;;;;;;5062459;28;20284;-76
2022/08/20 01:53:03;;;;;;;;;;;17.50;99.90;;;;;;5053308;28;19999;-76
2022/08/20 01:55:29;;;;;;;;;;;17.40;99.90;;;;;;5059020;28;20327;-76
2022/08/20 01:57:54;;;;;;;;;;;17.40;99.90;;;;;;5058661;28;19972;-76
2022/08/20 02:00:21;;;;;;;;;;;17.30;99.90;;;;;;5057243;28;19977;-76
2022/08/20 02:02:46;;;;;;;;;;;17.30;99.90;;;;;;5056369;28;19920;-75
2022/08/20 02:05:12;;;;;;;;;;;17.20;99.90;;;;;;5051439;28;19920;-76
2022/08/20 02:07:37;;;;;;;;;;;17.20;99.90;;;;;;5057244;28;20299;-76
2022/08/20 02:10:05;;;;;;;;;;;17.10;99.90;;;;;;5064552;28;20418;-76
2022/08/20 02:12:31;;;;;;;;;;;17.10;99.90;;;;;;5035356;28;19921;-76
2022/08/20 02:14:56;;;;;;;;;;;17.10;99.90;;;;;;5061741;28;19943;-76
2022/08/20 02:17:23;;;;;;;;;;;17.00;99.90;;;;;;5060261;28;19921;-76
2022/08/20 02:19:50;;;;;;;;;;;17.00;99.90;;;;;;5060490;28;20236;-76
2022/08/20 02:22:16;;;;;;;;;;;16.90;99.90;;;;;;5050087;28;19927;-76
2022/08/20 02:24:42;;;;;;;;;;;16.90;99.90;;;;;;5063695;28;20288;-76
2022/08/20 02:27:08;;;;;;;;;;;16.90;99.90;;;;;;5059785;28;19924;-76
2022/08/20 02:29:33;;;;;;;;;;;16.80;99.90;;;;;;5055951;28;20555;-76
2022/08/20 02:31:59;;;;;;;;;;;16.80;99.90;;;;;;5063951;28;20514;-76
2022/08/20 02:34:24;;;;;;;;;;;16.80;99.90;;;;;;5051189;28;19920;-76
2022/08/20 02:36:51;;;;;;;;;;;16.70;99.90;;;;;;5063320;28;19929;-76
2022/08/20 02:39:16;;;;;;;;;;;16.70;99.90;;;;;;5058290;28;20430;-76
2022/08/20 02:41:42;;;;;;;;;;;16.70;99.90;;;;;;5062854;28;20325;-76
2022/08/20 02:44:08;;;;;;;;;;;16.70;99.90;;;;;;5042283;28;19970;-76
2022/08/20 02:46:34;;;;;;;;;;;16.70;99.90;;;;;;5059717;28;19924;-76
2022/08/20 02:49:00;;;;;;;;;;;16.70;99.90;;;;;;5049105;28;19974;-76
2022/08/20 02:51:26;;;;;;;;;;;16.70;99.90;;;;;;5066443;28;19920;-76
2022/08/20 02:53:52;;;;;;;;;;;16.60;99.90;;;;;;5045968;28;19926;-76
2022/08/20 02:56:17;;;;;;;;;;;16.60;99.90;;;;;;5052351;28;20398;-76
2022/08/20 02:58:43;;;;;;;;;;;16.60;99.90;;;;;;5062249;28;19927;-76
2022/08/20 03:01:11;;;;;;;;;;;16.60;99.90;;;;;;5037129;28;20015;-76
2022/08/20 03:03:37;;;;;;;;;;;16.60;99.90;;;;;;5059250;28;19923;-77
2022/08/20 03:06:03;;;;;;;;;;;16.60;99.90;;;;;;5045531;28;20384;-76
2022/08/20 03:08:28;;;;;;;;;;;16.60;99.90;;;;;;5058010;28;19925;-76
2022/08/20 03:10:54;;;;;;;;;;;16.50;99.90;;;;;;5058795;28;20376;-76
2022/08/20 03:13:21;;;;;;;;;;;16.50;99.90;;;;;;5050506;28;19920;-76
2022/08/20 03:15:49;;;;;;;;;;;16.50;99.90;;;;;;5053486;28;19943;-76
2022/08/20 03:18:14;;;;;;;;;;;16.50;99.90;;;;;;5037411;28;19926;-76
2022/08/20 03:20:41;;;;;;;;;;;16.50;99.90;;;;;;5051529;28;19920;-76
2022/08/20 03:23:06;;;;;;;;;;;16.40;99.90;;;;;;5051450;28;20404;-76
2022/08/20 03:25:32;;;;;;;;;;;16.40;99.90;;;;;;5037686;28;19928;-76
2022/08/20 03:27:57;;;;;;;;;;;16.40;99.90;;;;;;5054637;28;19927;-76
2022/08/20 03:30:24;;;;;;;;;;;16.40;99.90;;;;;;5042919;28;19916;-76
2022/08/20 03:32:50;;;;;;;;;;;16.40;99.90;;;;;;5059288;28;20270;-76
2022/08/20 03:35:16;;;;;;;;;;;16.40;99.90;;;;;;5049502;28;19927;-76
2022/08/20 03:37:42;;;;;;;;;;;16.30;99.90;;;;;;5045889;28;19928;-76
2022/08/20 03:40:09;;;;;;;;;;;16.30;99.90;;;;;;5092235;28;20359;-76
2022/08/20 03:42:35;;;;;;;;;;;16.30;99.90;;;;;;5038600;28;19926;-75
2022/08/20 03:45:01;;;;;;;;;;;16.20;99.90;;;;;;5055184;28;19921;-76
2022/08/20 03:47:27;;;;;;;;;;;16.20;99.90;;;;;;5044879;28;19935;-76
2022/08/20 03:49:57;;;;;;;;;;;16.20;99.90;;;;;;5051662;28;20014;-76
2022/08/20 03:52:22;;;;;;;;;;;16.10;99.90;;;;;;5050675;28;19942;-76
2022/08/20 03:54:48;;;;;;;;;;;16.10;99.90;;;;;;5035699;28;20015;-77
2022/08/20 03:57:14;;;;;;;;;;;16.00;99.90;;;;;;5039055;28;20291;-76
2022/08/20 03:59:41;;;;;;;;;;;15.90;99.90;;;;;;5044198;28;20276;-76
2022/08/20 04:02:07;;;;;;;;;;;15.90;99.90;;;;;;5059444;28;19924;-76
2022/08/20 04:04:32;;;;;;;;;;;15.90;99.90;;;;;;5067528;28;19927;-76
2022/08/20 04:06:58;;;;;;;;;;;15.80;99.90;;;;;;5058745;28;19924;-76
2022/08/20 04:09:23;;;;;;;;;;;15.70;99.90;;;;;;5046388;28;19964;-76
2022/08/20 04:11:49;;;;;;;;;;;15.60;99.90;;;;;;5068794;28;19920;-76
2022/08/20 04:14:14;;;;;;;;;;;15.60;99.90;;;;;;5070952;28;20041;-76
2022/08/20 04:16:40;;;;;;;;;;;15.50;99.90;;;;;;5070793;28;19917;-76
2022/08/20 04:19:06;;;;;;;;;;;15.50;99.90;;;;;;5060753;28;20368;-76
2022/08/20 04:21:33;;;;;;;;;;;15.50;99.90;;;;;;5065822;28;19921;-76
2022/08/20 04:23:58;;;;;;;;;;;15.50;99.90;;;;;;5053905;28;19968;-76
2022/08/20 04:26:24;;;;;;;;;;;15.50;99.90;;;;;;5070150;28;19970;-76
2022/08/20 04:28:51;;;;;;;;;;;15.50;99.90;;;;;;5065171;28;19970;-76
2022/08/20 04:31:17;;;;;;;;;;;15.50;99.90;;;;;;5061434;28;20060;-76
2022/08/20 04:33:43;;;;;;;;;;;15.40;99.90;;;;;;5053474;28;20348;-76
2022/08/20 04:36:08;;;;;;;;;;;15.40;99.90;;;;;;5061389;28;20360;-75
2022/08/20 04:38:34;;;;;;;;;;;15.50;99.90;;;;;;5066264;28;19924;-75
2022/08/20 04:41:00;;;;;;;;;;;15.40;99.90;;;;;;5042460;28;19927;-76
2022/08/20 04:43:29;;;;;;;;;;;15.40;99.90;;;;;;5065319;28;20011;-76
2022/08/20 04:45:56;;;;;;;;;;;15.40;99.90;;;;;;5069815;28;20031;-75
2022/08/20 04:48:23;;;;;;;;;;;15.40;99.90;;;;;;5069836;28;20030;-75
2022/08/20 04:50:49;;;;;;;;;;;15.30;99.90;;;;;;5066110;28;20003;-75
2022/08/20 04:53:16;;;;;;;;;;;15.30;99.90;;;;;;5069742;28;20406;-76
2022/08/20 04:55:43;;;;;;;;;;;15.30;99.90;;;;;;5052774;28;19973;-76
2022/08/20 04:58:20;;;;;;;;;;;15.30;99.90;;;;;;5039328;28;19920;-76
2022/08/20 05:00:59;;;;;;;;;;;15.30;99.90;;;;;;5044796;28;19916;-76
2022/08/20 05:03:25;;;;;;;;;;;15.30;99.90;;;;;;5069106;28;19920;-76
2022/08/20 05:05:51;;;;;;;;;;;15.30;99.90;;;;;;5069868;28;19924;-76
2022/08/20 05:08:17;;;;;;;;;;;15.30;99.90;;;;;;5037589;28;20085;-75
2022/08/20 05:10:43;;;;;;;;;;;15.20;99.90;;;;;;5044185;28;20419;-76
2022/08/20 05:13:09;;;;;;;;;;;15.20;99.90;;;;;;5069192;28;19926;-75
2022/08/20 05:15:35;;;;;;;;;;;15.10;99.90;;;;;;5051401;28;19927;-76
2022/08/20 05:18:01;;;;;;;;;;;15.10;99.90;;;;;;5069295;28;19920;-76
2022/08/20 05:20:29;;;;;;;;;;;15.00;99.90;;;;;;5064713;28;19924;-76
2022/08/20 05:22:55;;;;;;;;;;;15.10;99.90;;;;;;5096123;28;19928;-76
2022/08/20 05:25:20;;;;;;;;;;;15.00;99.90;;;;;;5068805;28;19920;-75
2022/08/20 05:27:46;;;;;;;;;;;15.00;99.90;;;;;;5041156;28;19921;-76
2022/08/20 05:30:11;;;;;;;;;;;14.90;99.90;;;;;;5066352;28;19920;-76
2022/08/20 05:32:37;;;;;;;;;;;14.90;99.90;;;;;;5067136;28;19924;-75
2022/08/20 05:35:08;;;;;;;;;;;14.90;99.90;;;;;;5047884;28;20524;-76
2022/08/20 05:37:34;;;;;;;;;;;14.90;99.90;;;;;;5051981;28;20449;-75
2022/08/20 05:40:00;;;;;;;;;;;14.90;99.90;;;;;;5068517;28;20300;-76
2022/08/20 05:42:28;;;;;;;;;;;15.10;99.90;;;;;;5050303;28;19921;-75
2022/08/20 05:44:53;;;;;;;;;;;15.20;99.90;;;;;;5061664;28;19964;-75
2022/08/20 05:47:19;;;;;;;;;;;15.20;99.90;;;;;;5044977;28;19982;-76
2022/08/20 05:49:45;;;;;;;;;;;15.30;99.90;;;;;;5066466;28;19999;-75
2022/08/20 05:52:11;;;;;;;;;;;15.30;99.90;;;;;;5048623;28;19917;-76
2022/08/20 05:54:37;;;;;;;;;;;15.40;99.90;;;;;;5050764;28;19920;-75
2022/08/20 05:57:03;;;;;;;;;;;15.50;99.90;;;;;;5058019;28;19917;-75
2022/08/20 05:59:28;;;;;;;;;;;15.60;99.90;;;;;;5055476;28;20339;-75
2022/08/20 06:01:54;;;;;;;;;;;15.60;99.90;;;;;;5051636;28;19977;-75
2022/08/20 06:04:27;;;;;;;;;;;15.70;99.90;;;;;;5053798;28;19927;-76
2022/08/20 06:07:00;;;;;;;;;;;15.90;99.90;;;;;;5067855;28;19924;-76
2022/08/20 06:09:26;;;;;;;;;;;16.00;99.90;;;;;;5068731;28;20043;-76
2022/08/20 06:11:51;;;;;;;;;;;16.20;99.90;;;;;;5041912;28;20720;-76
2022/08/20 06:14:19;;;;;;;;;;;16.40;99.90;;;;;;5068698;28;20261;-76
2022/08/20 06:16:44;;;;;;;;;;;16.60;99.90;;;;;;5047204;28;19921;-76
2022/08/20 06:19:11;;;;;;;;;;;16.80;99.90;;;;;;5058995;28;19970;-76
2022/08/20 06:21:36;;;;;;;;;;;17.00;99.90;;;;;;5050191;28;20274;-76
2022/08/20 06:24:02;;;;;;;;;;;17.20;99.90;;;;;;5040501;28;19927;-76
2022/08/20 06:26:28;;;;;;;;;;;17.30;99.90;;;;;;5067563;28;19931;-76
2022/08/20 06:28:53;;;;;;;;;;;17.40;99.90;;;;;;5068065;28;20451;-76
2022/08/20 06:31:20;;;;;;;;;;;17.50;99.90;;;;;;5061309;28;20303;-76
2022/08/20 06:33:46;;;;;;;;;;;17.60;99.90;;;;;;5099608;28;20295;-76
2022/08/20 06:36:11;;;;;;;;;;;17.60;99.90;;;;;;5060188;28;19924;-76
2022/08/20 06:38:37;;;;;;;;;;;17.70;99.90;;;;;;5037262;28;19944;-76
2022/08/20 06:41:02;;;;;;;;;;;17.80;99.90;;;;;;5059931;28;20404;-76
2022/08/20 06:43:30;;;;;;;;;;;17.90;99.90;;;;;;5051788;28;20288;-76
2022/08/20 06:45:56;;;;;;;;;;;18.00;99.90;;;;;;5058158;28;19925;-76
2022/08/20 06:48:22;;;;;;;;;;;18.00;99.90;;;;;;5089977;28;19925;-76
2022/08/20 06:50:48;;;;;;;;;;;18.10;99.90;;;;;;5036731;28;19923;-77
2022/08/20 06:53:15;;;;;;;;;;;18.10;99.90;;;;;;5056527;28;20399;-77
2022/08/20 06:55:43;;;;;;;;;;;18.20;99.90;;;;;;5053505;28;19996;-76
2022/08/20 06:58:10;;;;;;;;;;;18.40;99.90;;;;;;5049922;28;20031;-76
2022/08/20 07:00:36;;;;;;;;;;;18.60;99.90;;;;;;5051136;28;19991;-76
2022/08/20 07:03:03;;;;;;;;;;;18.90;99.90;;;;;;5077634;28;19917;-76
2022/08/20 07:05:29;;;;;;;;;;;19.40;99.90;;;;;;5051586;28;19981;-76
2022/08/20 07:07:55;;;;;;;;;;;19.80;99.90;;;;;;5056834;28;19920;-76
2022/08/20 07:10:21;;;;;;;;;;;19.80;99.90;;;;;;5051603;28;19923;-76
2022/08/20 07:12:49;;;;;;;;;;;19.60;99.90;;;;;;5050484;28;19974;-76
2022/08/20 07:15:16;;;;;;;;;;;19.60;99.90;;;;;;5040989;28;19928;-76
2022/08/20 07:17:41;;;;;;;;;;;19.50;99.90;;;;;;5056897;28;20300;-75
2022/08/20 07:20:08;;;;;;;;;;;19.50;99.90;;;;;;5052658;28;19960;-76
2022/08/20 07:22:35;;;;;;;;;;;19.40;99.90;;;;;;5048523;28;19970;-76
2022/08/20 07:25:03;;;;;;;;;;;19.40;99.90;;;;;;5058231;28;19967;-76
2022/08/20 07:27:28;;;;;;;;;;;19.40;99.90;;;;;;5058509;28;19921;-76
2022/08/20 07:32:38;;;;;;;;;;;19.50;99.90;;;;;;5058796;28;20296;-76
2022/08/20 07:35:09;;;;;;;;;;;19.50;99.90;;;;;;5033576;28;19920;-76
2022/08/20 07:37:36;;;;;;;;;;;19.60;99.90;;;;;;5058119;28;19997;-76
2022/08/20 07:40:02;;;;;;;;;;;19.60;99.90;;;;;;5044432;28;19924;-76
2022/08/20 07:42:30;;;;;;;;;;;19.70;99.90;;;;;;5053788;28;20007;-76
2022/08/20 07:44:55;;;;;;;;;;;19.70;99.90;;;;;;5043359;28;19999;-76
2022/08/20 07:47:21;;;;;;;;;;;19.70;99.90;;;;;;5059754;28;20011;-76
2022/08/20 07:49:47;;;;;;;;;;;19.80;99.90;;;;;;5081085;28;19982;-76
2022/08/20 07:52:12;;;;;;;;;;;19.80;99.90;;;;;;5053106;28;20055;-76
2022/08/20 07:54:38;;;;;;;;;;;19.80;99.90;;;;;;5062518;28;19920;-76
2022/08/20 07:57:04;;;;;;;;;;;19.90;99.90;;;;;;5059934;28;19921;-76
2022/08/20 07:59:30;;;;;;;;;;;19.90;99.90;;;;;;5057401;28;20360;-76
2022/08/20 08:01:55;;;;;;;;;;;19.90;99.90;;;;;;5070438;28;20332;-76
2022/08/20 08:04:23;;;;;;;;;;;19.90;99.90;;;;;;5053965;28;19951;-76
2022/08/20 08:06:49;;;;;;;;;;;19.90;99.90;;;;;;5067887;28;19925;-76
2022/08/20 08:09:15;;;;;;;;;;;20.00;99.90;;;;;;5070856;28;19920;-76
2022/08/20 08:11:49;;;;;;;;;;;20.00;99.90;;;;;;5068934;28;19920;-76
2022/08/20 08:14:17;;;;;;;;;;;20.10;99.90;;;;;;5067612;28;19975;-76
2022/08/20 08:16:44;;;;;;;;;;;20.10;99.90;;;;;;5052446;28;19919;-76
2022/08/20 08:19:11;;;;;;;;;;;20.10;99.90;;;;;;5053965;28;20296;-76
2022/08/20 08:21:37;;;;;;;;;;;20.20;99.90;;;;;;5069953;28;19928;-76
2022/08/20 08:24:03;;;;;;;;;;;20.30;99.90;;;;;;5061941;28;19920;-77
2022/08/20 08:26:29;;;;;;;;;;;20.30;99.90;;;;;;5048376;28;19924;-76
2022/08/20 08:28:54;;;;;;;;;;;20.40;99.90;;;;;;5059395;28;20448;-75
2022/08/20 08:31:20;;;;;;;;;;;20.40;99.90;;;;;;5069932;28;20441;-75
2022/08/20 08:33:46;;;;;;;;;;;20.40;99.90;;;;;;5069992;28;19920;-76
2022/08/20 08:36:12;;;;;;;;;;;20.50;99.90;;;;;;5053655;28;20262;-76
2022/08/20 08:38:39;;;;;;;;;;;20.60;99.90;;;;;;5039912;28;20445;-76
2022/08/20 08:41:17;;;;;;;;;;;20.70;99.90;;;;;;5069556;28;20436;-76
2022/08/20 08:43:45;;;;;;;;;;;20.80;99.90;;;;;;5069761;28;20338;-76
2022/08/20 08:46:11;;;;;;;;;;;20.90;99.90;;;;;;5049862;28;19929;-76
2022/08/20 08:48:41;;;;;;;;;;;21.10;99.90;;;;;;5069638;28;19931;-76
2022/08/20 08:51:10;;;;;;;;;;;21.60;99.90;;;;;;5069713;28;19924;-77
2022/08/20 08:53:37;;;;;;;;;;;22.20;99.90;;;;;;5069454;28;20384;-77
2022/08/20 08:56:07;;;;;;;;;;;23.10;99.90;;;;;;5055513;28;19917;-76
2022/08/20 08:58:34;;;;;;;;;;;23.80;99.90;;;;;;5074776;28;20436;-76
2022/08/20 09:01:07;;;;;;;;;;;23.80;99.80;;;;;;5066995;28;20008;-76
2022/08/20 09:03:35;;;;;;;;;;;23.90;99.90;;;;;;5069622;28;20346;-76
2022/08/20 09:06:01;;;;;;;;;;;24.30;99.90;;;;;;5064634;28;19929;-76
2022/08/20 09:08:30;;;;;;;;;;;24.70;97.40;;;;;;5052844;28;19985;-76
2022/08/20 09:11:00;;;;;;;;;;;25.20;98.80;;;;;;5067971;28;19920;-77
2022/08/20 09:13:25;;;;;;;;;;;25.60;98.20;;;;;;5069023;28;19966;-77
2022/08/20 09:15:51;;;;;;;;;;;25.70;95.70;;;;;;5052480;28;19963;-76
2022/08/20 09:18:16;;;;;;;;;;;25.00;94.30;;;;;;5052461;28;19963;-77
2022/08/20 09:20:42;;;;;;;;;;;25.00;97.00;;;;;;5062172;28;19920;-76
2022/08/20 09:23:07;;;;;;;;;;;25.40;95.50;;;;;;5052236;28;20388;-76
2022/08/20 09:25:33;;;;;;;;;;;25.70;95.30;;;;;;5048360;28;20003;-77
2022/08/20 09:27:58;;;;;;;;;;;26.00;94.90;;;;;;5052775;28;19920;-76
2022/08/20 09:30:24;;;;;;;;;;;26.10;93.40;;;;;;5058941;28;19950;-76
2022/08/20 09:32:49;;;;;;;;;;;26.20;91.80;;;;;;5052381;28;19927;-76
2022/08/20 09:35:15;;;;;;;;;;;26.00;91.80;;;;;;5051737;28;19968;-76
2022/08/20 09:37:40;;;;;;;;;;;25.40;91.10;;;;;;5066949;28;19978;-76
2022/08/20 09:40:07;;;;;;;;;;;24.70;91.70;;;;;;5097574;28;19924;-76
2022/08/20 09:42:34;;;;;;;;;;;24.70;93.00;;;;;;5068781;28;19971;-77
2022/08/20 09:45:00;;;;;;;;;;;25.10;93.70;;;;;;5050912;28;19920;-77
2022/08/20 09:47:26;;;;;;;;;;;25.60;91.70;;;;;;5069061;28;20399;-77
2022/08/20 09:49:52;;;;;;;;;;;25.80;91.20;;;;;;5052201;28;20245;-76
2022/08/20 09:52:29;;;;;;;;;;;25.30;90.80;;;;;;5061966;28;19974;-77
2022/08/20 09:55:03;;;;;;;;;;;24.70;90.80;;;;;;5051768;28;20318;-76
2022/08/20 09:57:29;;;;;;;;;;;24.30;90.40;;;;;;5045249;28;19948;-76
2022/08/20 09:59:59;;;;;;;;;;;23.80;90.90;;;;;;5068999;28;20332;-77
2022/08/20 10:02:25;;;;;;;;;;;23.70;91.60;;;;;;5068873;28;19982;-76
2022/08/20 10:04:51;;;;;;;;;;;23.50;92.50;;;;;;5067356;28;19920;-76
2022/08/20 10:07:16;;;;;;;;;;;23.20;91.40;;;;;;5067938;28;19967;-76
2022/08/20 10:09:42;;;;;;;;;;;23.20;92.20;;;;;;5067552;28;19971;-76
2022/08/20 10:12:07;;;;;;;;;;;23.70;91.60;;;;;;5044838;28;19971;-76
2022/08/20 10:14:33;;;;;;;;;;;24.20;91.30;;;;;;5045968;28;19920;-76
2022/08/20 10:16:59;;;;;;;;;;;24.60;91.30;;;;;;5067078;28;19920;-77
2022/08/20 10:19:25;;;;;;;;;;;24.80;89.20;;;;;;5094799;28;19965;-76
2022/08/20 10:21:51;;;;;;;;;;;25.00;90.00;;;;;;5068325;28;19920;-76
2022/08/20 10:24:16;;;;;;;;;;;25.10;86.70;;;;;;5102066;28;19920;-76
2022/08/20 10:26:42;;;;;;;;;;;25.50;90.30;;;;;;5038277;28;20310;-76
2022/08/20 10:29:08;;;;;;;;;;;25.80;87.50;;;;;;5068017;28;19928;-76
2022/08/20 10:31:33;;;;;;;;;;;26.10;90.20;;;;;;5047135;28;19928;-77
2022/08/20 10:33:59;;;;;;;;;;;26.40;85.40;;;;;;5067905;28;19924;-77
2022/08/20 10:36:24;;;;;;;;;;;26.40;81.70;;;;;;5050975;28;19927;-77
2022/08/20 10:38:50;;;;;;;;;;;26.60;81.20;;;;;;5064956;28;19986;-76
2022/08/20 10:41:15;;;;;;;;;;;26.40;80.80;;;;;;5051130;28;19920;-77
2022/08/20 10:43:41;;;;;;;;;;;26.20;81.60;;;;;;5050202;28;19916;-77
2022/08/20 10:46:07;;;;;;;;;;;25.80;79.90;;;;;;5067600;28;20046;-76
2022/08/20 10:48:33;;;;;;;;;;;25.50;80.60;;;;;;5050977;28;19927;-77
2022/08/20 10:50:59;;;;;;;;;;;25.20;83.00;;;;;;5049848;28;20291;-76
2022/08/20 10:53:24;;;;;;;;;;;25.00;83.50;;;;;;5068069;28;20418;-77
2022/08/20 10:55:51;;;;;;;;;;;24.90;86.30;;;;;;5052852;28;20369;-76
2022/08/20 10:58:16;;;;;;;;;;;24.70;83.20;;;;;;5088083;28;19928;-76
2022/08/20 11:00:42;;;;;;;;;;;24.50;84.40;;;;;;5046178;28;19926;-76
2022/08/20 11:03:07;;;;;;;;;;;24.20;85.70;;;;;;5066244;28;19916;-77
2022/08/20 11:05:33;;;;;;;;;;;24.10;86.80;;;;;;5067843;28;19916;-76
2022/08/20 11:08:00;;;;;;;;;;;23.80;85.50;;;;;;5056031;28;19928;-76
2022/08/20 11:10:26;;;;;;;;;;;23.70;85.10;;;;;;5067418;28;19968;-76
2022/08/20 11:12:52;;;;;;;;;;;23.50;86.40;;;;;;5067837;28;20013;-76
2022/08/20 11:15:17;;;;;;;;;;;23.40;87.30;;;;;;5066228;28;20463;-76
2022/08/20 11:17:43;;;;;;;;;;;23.40;88.00;;;;;;5043917;28;19924;-76
2022/08/20 11:20:10;;;;;;;;;;;23.90;90.70;;;;;;5068230;28;19974;-77
2022/08/20 11:22:35;;;;;;;;;;;24.30;90.30;;;;;;5055265;28;20336;-76
2022/08/20 11:25:02;;;;;;;;;;;24.50;88.90;;;;;;5042967;28;20029;-76
2022/08/20 11:27:30;;;;;;;;;;;24.60;88.10;;;;;;5054573;28;19928;-76
2022/08/20 11:29:55;;;;;;;;;;;24.50;88.10;;;;;;5070918;28;19989;-76
2022/08/20 11:32:21;;;;;;;;;;;24.40;86.20;;;;;;5071361;28;19924;-76
2022/08/20 11:34:47;;;;;;;;;;;24.50;89.30;;;;;;5070021;28;19927;-77
2022/08/20 11:37:14;;;;;;;;;;;24.80;85.70;;;;;;5054548;28;19975;-77
2022/08/20 11:39:39;;;;;;;;;;;24.90;88.00;;;;;;5070764;28;19973;-76
2022/08/20 11:42:05;;;;;;;;;;;25.20;84.60;;;;;;5069886;28;19920;-76
2022/08/20 11:44:30;;;;;;;;;;;25.10;82.80;;;;;;5098126;28;20003;-76
2022/08/20 11:47:01;;;;;;;;;;;24.70;83.40;;;;;;5054282;28;20291;-76
2022/08/20 11:49:27;;;;;;;;;;;24.30;82.70;;;;;;5054572;28;19931;-76
2022/08/20 11:51:53;;;;;;;;;;;23.90;83.40;;;;;;5042430;28;19936;-77
2022/08/20 11:54:18;;;;;;;;;;;23.70;83.90;;;;;;5043051;28;19942;-77
2022/08/20 11:56:44;;;;;;;;;;;24.00;84.30;;;;;;5063047;28;19920;-76
2022/08/20 11:59:10;;;;;;;;;;;24.40;86.20;;;;;;5064270;28;20040;-76
2022/08/20 12:01:35;;;;;;;;;;;24.90;86.20;;;;;;5053329;28;20282;-76
2022/08/20 12:04:01;;;;;;;;;;;25.40;81.80;;;;;;5053751;28;19927;-76
2022/08/20 12:06:27;;;;;;;;;;;25.60;79.10;;;;;;5053853;28;20053;-77
2022/08/20 12:08:52;;;;;;;;;;;25.50;78.90;;;;;;5096274;28;19924;-76
2022/08/20 12:11:18;;;;;;;;;;;25.60;81.90;;;;;;5100362;28;19920;-76
2022/08/20 12:13:43;;;;;;;;;;;26.00;81.30;;;;;;5048225;28;19920;-75
2022/08/20 12:16:08;;;;;;;;;;;26.20;78.60;;;;;;5070254;28;19920;-76
2022/08/20 12:18:34;;;;;;;;;;;26.30;77.50;;;;;;5053848;28;20490;-76
2022/08/20 12:21:00;;;;;;;;;;;26.10;75.80;;;;;;5068708;28;19977;-77
2022/08/20 12:23:25;;;;;;;;;;;25.80;75.60;;;;;;5051374;28;19920;-76
2022/08/20 12:25:50;;;;;;;;;;;25.30;74.80;;;;;;5070255;28;20011;-77
2022/08/20 12:28:16;;;;;;;;;;;24.70;77.30;;;;;;5051968;28;19931;-76
2022/08/20 12:30:42;;;;;;;;;;;24.50;76.40;;;;;;5069962;28;19916;-76
2022/08/20 12:33:07;;;;;;;;;;;24.30;76.00;;;;;;5069219;28;20291;-76
2022/08/20 12:35:33;;;;;;;;;;;24.00;76.20;;;;;;5064315;28;19921;-76
2022/08/20 12:38:01;;;;;;;;;;;24.00;78.00;;;;;;5070466;28;19920;-75
2022/08/20 12:40:27;;;;;;;;;;;24.10;78.80;;;;;;5051981;28;19950;-76
2022/08/20 12:42:53;;;;;;;;;;;24.40;79.40;;;;;;5069912;28;20011;-76
2022/08/20 12:45:19;;;;;;;;;;;24.80;81.10;;;;;;5068488;28;19920;-77
2022/08/20 12:47:45;;;;;;;;;;;25.00;78.80;;;;;;5069692;28;19927;-75
2022/08/20 12:50:13;;;;;;;;;;;24.90;77.40;;;;;;5053814;28;20025;-76
2022/08/20 12:52:39;;;;;;;;;;;24.70;77.80;;;;;;5069638;28;19920;-76
2022/08/20 12:55:05;;;;;;;;;;;24.40;77.20;;;;;;5046648;28;19917;-76
2022/08/20 12:57:33;;;;;;;;;;;24.30;77.50;;;;;;5094543;28;19921;-76
2022/08/20 13:00:05;;;;;;;;;;;24.20;77.20;;;;;;5069828;28;19921;-76
2022/08/20 13:02:30;;;;;;;;;;;24.10;78.80;;;;;;5045558;28;19967;-76
2022/08/20 13:04:56;;;;;;;;;;;24.50;79.50;;;;;;5095814;28;19925;-76
2022/08/20 13:07:21;;;;;;;;;;;24.80;77.60;;;;;;5069582;28;19924;-76
2022/08/20 13:09:47;;;;;;;;;;;25.10;76.10;;;;;;5059267;28;20379;-76
2022/08/20 13:12:15;;;;;;;;;;;24.90;73.40;;;;;;5069476;28;20726;-75
2022/08/20 13:14:41;;;;;;;;;;;24.70;74.00;;;;;;5069131;28;19917;-76
2022/08/20 13:17:07;;;;;;;;;;;24.50;74.60;;;;;;5059325;28;19921;-76
2022/08/20 13:19:33;;;;;;;;;;;24.30;75.10;;;;;;5069319;28;19926;-76
2022/08/20 13:21:58;;;;;;;;;;;24.20;73.80;;;;;;5048002;28;19920;-76
2022/08/20 13:24:25;;;;;;;;;;;24.00;74.90;;;;;;5070881;28;19970;-76
2022/08/20 13:26:51;;;;;;;;;;;23.90;74.50;;;;;;5052364;28;19924;-76
2022/08/20 13:29:17;;;;;;;;;;;23.80;76.10;;;;;;5067787;28;19969;-76
2022/08/20 13:31:43;;;;;;;;;;;23.90;76.30;;;;;;5064387;28;19943;-75
2022/08/20 13:34:09;;;;;;;;;;;23.90;75.30;;;;;;5069139;28;19920;-76
2022/08/20 13:36:35;;;;;;;;;;;23.80;76.60;;;;;;5069367;28;19920;-76
2022/08/20 13:39:01;;;;;;;;;;;23.90;76.80;;;;;;5068755;28;19931;-75
2022/08/20 13:41:26;;;;;;;;;;;23.80;77.20;;;;;;5050502;28;19928;-76
2022/08/20 13:43:52;;;;;;;;;;;23.90;77.10;;;;;;5068672;28;20057;-76
2022/08/20 13:46:17;;;;;;;;;;;24.20;75.40;;;;;;5068904;28;19921;-76
2022/08/20 13:48:44;;;;;;;;;;;24.70;75.90;;;;;;5067361;28;20007;-76
2022/08/20 13:51:10;;;;;;;;;;;25.10;74.90;;;;;;5052333;28;20031;-76
2022/08/20 13:53:35;;;;;;;;;;;25.30;74.50;;;;;;5049650;28;20557;-76
2022/08/20 13:56:01;;;;;;;;;;;25.30;74.60;;;;;;5036471;28;20035;-76
2022/08/20 13:58:26;;;;;;;;;;;25.00;73.70;;;;;;5050644;28;19926;-76
2022/08/20 14:00:52;;;;;;;;;;;24.80;74.80;;;;;;5062447;28;20384;-77
2022/08/20 14:03:17;;;;;;;;;;;24.80;75.70;;;;;;5052335;28;19920;-76
2022/08/20 14:05:43;;;;;;;;;;;25.00;75.30;;;;;;5067100;28;19927;-76
2022/08/20 14:08:17;;;;;;;;;;;25.40;74.80;;;;;;5068221;28;20433;-76
2022/08/20 14:10:43;;;;;;;;;;;25.70;73.20;;;;;;5065752;28;19920;-76
2022/08/20 14:13:09;;;;;;;;;;;25.80;74.70;;;;;;5068101;28;19916;-76